createdAt,value
2023-03-13T00:01:44.571Z,52.74
2023-03-13T00:03:46.164Z,52.73
2023-03-13T00:05:47.655Z,52.92
2023-03-13T00:07:49.152Z,52.65
2023-03-13T00:09:50.635Z,52.65
2023-03-13T00:11:52.298Z,52.53
2023-03-13T00:13:55.745Z,52.74
2023-03-13T00:16:13.818Z,52.80
2023-03-13T00:18:17.669Z,52.62
2023-03-13T00:20:19.310Z,52.61
2023-03-13T00:22:24.031Z,52.54
2023-03-13T00:24:25.604Z,52.66
2023-03-13T00:26:30.454Z,52.46
2023-03-13T00:28:33.474Z,52.74
2023-03-13T00:30:35.016Z,52.90
2023-03-13T00:32:44.225Z,52.89
2023-03-13T00:34:45.723Z,52.76
2023-03-13T00:36:47.399Z,52.74
2023-03-13T00:38:50.372Z,52.80
2023-03-13T00:40:59.284Z,53.01
2023-03-13T00:43:01.963Z,52.70
2023-03-13T00:45:04.010Z,52.89
2023-03-13T00:47:07.058Z,52.71
2023-03-13T00:49:08.779Z,52.61
2023-03-13T00:51:11.467Z,52.67
2023-03-13T00:53:13.010Z,53.06
2023-03-13T00:55:14.619Z,52.82
2023-03-13T00:57:18.758Z,52.67
2023-03-13T00:59:21.144Z,52.73
2023-03-13T01:01:23.887Z,52.75
2023-03-13T01:03:25.868Z,52.55
2023-03-13T01:05:27.505Z,52.84
2023-03-13T01:07:29.865Z,52.72
2023-03-13T01:09:31.337Z,52.74
2023-03-13T01:11:35.805Z,52.79
2023-03-13T01:13:38.082Z,52.70
2023-03-13T01:15:39.570Z,52.86
2023-03-13T01:17:44.158Z,52.78
2023-03-13T01:19:47.205Z,52.87
2023-03-13T01:21:53.664Z,52.82
2023-03-13T01:23:55.286Z,52.80
2023-03-13T01:25:59.285Z,53.00
2023-03-13T01:28:00.765Z,52.91
2023-03-13T01:30:03.676Z,52.76
2023-03-13T01:32:05.548Z,52.81
2023-03-13T01:34:09.967Z,52.79
2023-03-13T01:36:12.212Z,52.59
2023-03-13T01:38:15.123Z,52.75
2023-03-13T01:40:17.138Z,52.93
2023-03-13T01:42:18.661Z,53.05
2023-03-13T01:44:26.235Z,52.91
2023-03-13T01:46:33.013Z,52.67
2023-03-13T01:49:03.874Z,52.93
2023-03-13T01:51:21.311Z,52.85
2023-03-13T01:53:24.398Z,52.75
2023-03-13T01:55:26.145Z,53.05
2023-03-13T01:57:37.535Z,52.38
2023-03-13T02:00:12.175Z,52.85
2023-03-13T02:02:16.773Z,52.70
2023-03-13T02:04:22.148Z,52.86
2023-03-13T02:06:31.481Z,53.18
2023-03-13T02:08:49.178Z,52.88
2023-03-13T02:10:56.537Z,53.07
2023-03-13T02:13:01.020Z,53.03
2023-03-13T02:15:09.089Z,53.04
2023-03-13T02:17:11.121Z,52.82
2023-03-13T02:19:52.190Z,53.29
2023-03-13T02:22:15.275Z,53.23
2023-03-13T02:24:25.358Z,53.28
2023-03-13T02:26:27.244Z,53.08
2023-03-13T02:28:33.953Z,53.36
2023-03-13T02:30:39.814Z,52.99
2023-03-13T02:32:42.080Z,53.09
2023-03-13T02:34:45.391Z,53.23
2023-03-13T02:36:47.881Z,53.08
2023-03-13T02:38:59.647Z,53.07
2023-03-13T02:41:06.273Z,53.01
2023-03-13T02:43:14.036Z,52.98
2023-03-13T02:45:20.110Z,53.10
2023-03-13T02:47:26.960Z,53.30
2023-03-13T02:49:30.308Z,53.04
2023-03-13T02:51:39.003Z,53.13
2023-03-13T02:53:44.782Z,52.88
2023-03-13T02:55:46.465Z,53.17
2023-03-13T02:57:51.239Z,53.19
2023-03-13T02:59:52.686Z,53.31
2023-03-13T03:01:55.662Z,53.12
2023-03-13T03:03:57.310Z,53.14
2023-03-13T03:06:02.141Z,52.91
2023-03-13T03:08:03.697Z,53.28
2023-03-13T03:10:06.781Z,53.27
2023-03-13T03:12:09.697Z,53.31
2023-03-13T03:14:13.655Z,53.39
2023-03-13T03:16:21.624Z,53.33
2023-03-13T03:18:23.235Z,53.48
2023-03-13T03:20:24.693Z,53.52
2023-03-13T03:22:28.973Z,53.48
2023-03-13T03:24:30.671Z,53.56
2023-03-13T03:26:32.479Z,53.54
2023-03-13T03:28:34.284Z,53.48
2023-03-13T03:30:39.474Z,53.47
2023-03-13T03:32:41.252Z,53.64
2023-03-13T03:34:42.733Z,53.71
2023-03-13T03:36:44.448Z,53.60
2023-03-13T03:38:46.177Z,53.71
2023-03-13T03:40:50.743Z,53.85
2023-03-13T03:42:52.246Z,53.80
2023-03-13T03:44:54.140Z,53.64
2023-03-13T03:46:55.709Z,53.58
2023-03-13T03:48:58.824Z,53.64
2023-03-13T03:51:01.039Z,53.72
2023-03-13T03:53:03.777Z,53.85
2023-03-13T03:55:05.589Z,54.01
2023-03-13T03:57:07.117Z,53.85
2023-03-13T03:59:10.141Z,53.70
2023-03-13T04:01:30.632Z,54.10
2023-03-13T04:03:32.813Z,53.91
2023-03-13T04:05:34.836Z,54.01
2023-03-13T04:07:36.560Z,53.85
2023-03-13T04:09:38.267Z,53.71
2023-03-13T04:11:41.812Z,53.90
2023-03-13T04:13:47.502Z,53.74
2023-03-13T04:15:49.484Z,53.85
2023-03-13T04:17:52.276Z,53.89
2023-03-13T04:19:56.226Z,53.82
2023-03-13T04:22:00.844Z,53.71
2023-03-13T04:24:02.784Z,53.80
2023-03-13T04:26:12.229Z,54.08
2023-03-13T04:28:15.457Z,53.85
2023-03-13T04:30:19.627Z,53.80
2023-03-13T04:32:53.409Z,53.84
2023-03-13T04:35:06.936Z,53.85
2023-03-13T04:37:26.827Z,54.28
2023-03-13T04:39:47.274Z,53.98
2023-03-13T04:41:58.099Z,53.84
2023-03-13T04:44:31.640Z,54.06
2023-03-13T04:46:53.355Z,53.92
2023-03-13T04:49:33.074Z,54.01
2023-03-13T04:51:45.221Z,53.91
2023-03-13T04:53:46.699Z,54.13
2023-03-13T04:56:41.834Z,54.10
2023-03-13T04:59:04.952Z,54.00
2023-03-13T05:01:26.776Z,54.06
2023-03-13T05:03:52.078Z,54.10
2023-03-13T05:06:12.939Z,54.09
2023-03-13T05:08:39.353Z,54.23
2023-03-13T05:11:10.797Z,54.22
2023-03-13T05:13:32.035Z,54.20
2023-03-13T05:15:43.413Z,54.02
2023-03-13T05:17:45.116Z,54.00
2023-03-13T05:20:11.294Z,54.22
2023-03-13T05:22:35.756Z,54.21
2023-03-13T05:24:52.240Z,54.32
2023-03-13T05:27:12.337Z,53.87
2023-03-13T05:29:49.098Z,54.28
2023-03-13T05:32:16.868Z,54.12
2023-03-13T05:34:36.002Z,54.13
2023-03-13T05:37:03.435Z,53.99
2023-03-13T05:39:10.207Z,54.33
2023-03-13T05:41:29.741Z,54.28
2023-03-13T05:43:49.312Z,54.33
2023-03-13T05:46:05.857Z,54.24
2023-03-13T05:48:30.769Z,54.36
2023-03-13T05:50:58.018Z,54.41
2023-03-13T05:53:21.300Z,54.52
2023-03-13T05:55:36.799Z,54.17
2023-03-13T05:57:51.819Z,54.36
2023-03-13T06:00:17.346Z,54.56
2023-03-13T06:02:33.555Z,54.16
2023-03-13T06:04:36.078Z,54.91
2023-03-13T06:06:37.685Z,54.30
2023-03-13T06:08:40.028Z,54.50
2023-03-13T06:10:41.740Z,54.48
2023-03-13T06:12:44.594Z,54.65
2023-03-13T06:14:48.266Z,54.40
2023-03-13T06:17:00.547Z,54.77
2023-03-13T06:19:03.022Z,54.72
2023-03-13T06:21:04.728Z,54.73
2023-03-13T06:23:09.527Z,54.57
2023-03-13T06:25:13.368Z,54.86
2023-03-13T06:27:17.958Z,55.18
2023-03-13T06:29:19.587Z,55.04
2023-03-13T06:31:23.537Z,54.75
2023-03-13T06:33:26.253Z,55.02
2023-03-13T06:35:27.875Z,55.17
2023-03-13T06:37:32.568Z,55.09
2023-03-13T06:39:36.815Z,55.11
2023-03-13T06:41:41.709Z,55.16
2023-03-13T06:43:43.557Z,55.10
2023-03-13T06:45:45.168Z,55.22
2023-03-13T06:47:46.687Z,55.08
2023-03-13T06:49:48.165Z,55.16
2023-03-13T06:51:49.734Z,55.48
2023-03-13T06:53:52.423Z,55.78
2023-03-13T06:55:53.916Z,55.86
2023-03-13T06:57:55.802Z,55.68
2023-03-13T06:59:57.419Z,55.55
2023-03-13T07:01:59.417Z,55.54
2023-03-13T07:04:01.056Z,55.89
2023-03-13T07:06:03.756Z,56.20
2023-03-13T07:08:08.398Z,55.64
2023-03-13T07:10:11.056Z,55.62
2023-03-13T07:12:18.778Z,56.01
2023-03-13T07:14:22.968Z,56.27
2023-03-13T07:16:28.151Z,56.65
2023-03-13T07:18:34.536Z,56.20
2023-03-13T07:20:36.154Z,56.19
2023-03-13T07:22:38.124Z,56.68
2023-03-13T07:24:39.694Z,56.65
2023-03-13T07:26:57.978Z,56.47
2023-03-13T07:29:05.649Z,56.59
2023-03-13T07:31:18.150Z,56.88
2023-03-13T07:33:20.084Z,56.78
2023-03-13T07:35:21.946Z,56.57
2023-03-13T07:37:26.395Z,56.63
2023-03-13T07:39:27.853Z,56.93
2023-03-13T07:41:29.301Z,56.92
2023-03-13T07:43:31.550Z,56.88
2023-03-13T07:45:33.083Z,56.99
2023-03-13T07:47:35.349Z,57.02
2023-03-13T07:49:43.790Z,57.04
2023-03-13T07:51:47.711Z,57.03
2023-03-13T07:53:50.488Z,56.72
2023-03-13T07:55:59.688Z,57.24
2023-03-13T07:58:01.227Z,56.91
2023-03-13T08:00:03.015Z,57.01
2023-03-13T08:02:16.999Z,57.05
2023-03-13T08:04:18.459Z,57.01
2023-03-13T08:06:25.414Z,57.07
2023-03-13T08:08:27.466Z,56.92
2023-03-13T08:10:28.928Z,56.96
2023-03-13T08:12:30.347Z,56.91
2023-03-13T08:14:34.322Z,56.92
2023-03-13T08:16:36.310Z,56.88
2023-03-13T08:18:39.949Z,56.74
2023-03-13T08:20:41.544Z,56.58
2023-03-13T08:22:43.238Z,56.72
2023-03-13T08:24:44.721Z,56.72
2023-03-13T08:26:46.176Z,56.71
2023-03-13T08:28:52.210Z,56.78
2023-03-13T08:30:53.674Z,56.86
2023-03-13T08:32:55.251Z,56.87
2023-03-13T08:34:56.768Z,56.74
2023-03-13T08:36:58.498Z,57.21
2023-03-13T08:39:02.243Z,56.90
2023-03-13T08:41:04.043Z,57.05
2023-03-13T08:43:05.515Z,56.86
2023-03-13T08:45:08.059Z,56.71
2023-03-13T08:47:09.502Z,56.81
2023-03-13T08:49:12.310Z,56.83
2023-03-13T08:51:17.405Z,56.79
2023-03-13T08:53:19.071Z,56.67
2023-03-13T08:55:20.827Z,56.81
2023-03-13T08:57:22.434Z,56.84
2023-03-13T08:59:23.958Z,56.96
2023-03-13T09:01:28.560Z,56.96
2023-03-13T09:03:30.285Z,56.94
2023-03-13T09:05:31.844Z,57.11
2023-03-13T09:07:33.450Z,57.21
2023-03-13T09:09:35.471Z,57.19
2023-03-13T09:11:39.817Z,57.00
2023-03-13T09:13:44.034Z,57.34
2023-03-13T09:15:59.102Z,57.77
2023-03-13T09:18:01.282Z,57.22
2023-03-13T09:20:02.819Z,57.52
2023-03-13T09:22:04.453Z,57.30
2023-03-13T09:24:06.559Z,57.54
2023-03-13T09:26:09.542Z,57.42
2023-03-13T09:28:11.471Z,57.42
2023-03-13T09:30:13.546Z,57.15
2023-03-13T09:32:14.987Z,57.31
2023-03-13T09:34:22.248Z,57.63
2023-03-13T09:36:24.810Z,57.63
2023-03-13T09:38:26.367Z,57.67
2023-03-13T09:40:28.611Z,57.75
2023-03-13T09:42:50.733Z,58.19
2023-03-13T09:45:17.961Z,58.26
2023-03-13T09:47:37.491Z,58.46
2023-03-13T09:49:51.496Z,57.87
2023-03-13T09:52:22.670Z,57.95
2023-03-13T09:54:29.585Z,57.66
2023-03-13T09:56:54.881Z,58.22
2023-03-13T09:59:13.566Z,58.35
2023-03-13T10:01:22.734Z,57.93
2023-03-13T10:03:40.213Z,57.77
2023-03-13T10:05:49.623Z,57.81
2023-03-13T10:08:21.819Z,57.68
2023-03-13T10:10:45.157Z,57.93
2023-03-13T10:12:49.255Z,57.90
2023-03-13T10:15:18.615Z,57.97
2023-03-13T10:17:31.336Z,57.75
2023-03-13T10:19:42.246Z,57.62
2023-03-13T10:21:47.949Z,57.69
2023-03-13T10:24:14.734Z,57.31
2023-03-13T10:26:23.374Z,57.57
2023-03-13T10:28:26.111Z,57.48
2023-03-13T10:30:27.742Z,57.33
2023-03-13T10:32:29.255Z,57.43
2023-03-13T10:34:59.057Z,57.43
2023-03-13T10:37:03.225Z,57.52
2023-03-13T10:39:14.787Z,57.46
2023-03-13T10:41:29.144Z,57.67
2023-03-13T10:43:30.801Z,57.27
2023-03-13T10:45:35.814Z,57.40
2023-03-13T10:47:37.798Z,57.49
2023-03-13T10:49:51.626Z,57.45
2023-03-13T10:51:56.349Z,57.20
2023-03-13T10:53:58.215Z,57.47
2023-03-13T10:56:29.007Z,57.69
2023-03-13T10:58:35.658Z,57.70
2023-03-13T11:00:41.258Z,57.93
2023-03-13T11:02:46.292Z,58.02
2023-03-13T11:04:52.504Z,58.11
2023-03-13T11:07:02.482Z,57.86
2023-03-13T11:09:09.946Z,58.06
2023-03-13T11:11:19.941Z,58.02
2023-03-13T11:13:38.979Z,58.05
2023-03-13T11:15:57.373Z,58.15
2023-03-13T11:18:16.748Z,58.12
2023-03-13T11:20:25.458Z,58.03
2023-03-13T11:22:38.926Z,57.93
2023-03-13T11:24:49.501Z,57.73
2023-03-13T11:27:04.292Z,57.70
2023-03-13T11:29:32.465Z,57.72
2023-03-13T11:31:45.330Z,57.47
2023-03-13T11:34:11.106Z,57.37
2023-03-13T11:36:25.623Z,57.13
2023-03-13T11:38:29.173Z,56.98
2023-03-13T11:40:35.180Z,56.85
2023-03-13T11:42:46.929Z,56.85
2023-03-13T11:45:14.164Z,56.49
2023-03-13T11:47:44.813Z,56.60
2023-03-13T11:49:55.274Z,56.50
2023-03-13T11:52:04.022Z,56.42
2023-03-13T11:54:21.836Z,56.36
2023-03-13T11:56:35.611Z,56.25
2023-03-13T11:58:54.124Z,56.50
2023-03-13T12:01:12.555Z,56.96
2023-03-13T12:03:52.031Z,57.07
2023-03-13T12:05:57.420Z,57.04
2023-03-13T12:08:05.722Z,57.44
2023-03-13T12:10:15.051Z,57.35
2023-03-13T12:12:40.443Z,57.22
2023-03-13T12:14:48.364Z,56.93
2023-03-13T12:17:13.473Z,56.71
2023-03-13T12:19:22.166Z,56.52
2023-03-13T12:21:30.476Z,56.16
2023-03-13T12:23:50.433Z,56.59
2023-03-13T12:25:57.659Z,56.34
2023-03-13T12:28:19.084Z,56.39
2023-03-13T12:30:47.703Z,56.20
2023-03-13T12:33:39.296Z,56.64
2023-03-13T12:35:47.228Z,56.35
2023-03-13T12:38:06.948Z,56.27
2023-03-13T12:40:31.183Z,56.28
2023-03-13T12:42:42.030Z,56.38
2023-03-13T12:44:43.747Z,56.33
2023-03-13T12:46:50.232Z,55.59
2023-03-13T12:49:05.530Z,55.24
2023-03-13T12:51:17.383Z,55.08
2023-03-13T12:53:47.619Z,54.93
2023-03-13T12:56:31.170Z,55.07
2023-03-13T12:58:51.342Z,54.89
2023-03-13T13:00:55.324Z,54.47
2023-03-13T13:03:31.948Z,54.50
2023-03-13T13:05:33.635Z,54.14
2023-03-13T13:07:47.515Z,53.64
2023-03-13T13:10:20.897Z,53.43
2023-03-13T13:12:25.234Z,53.36
2023-03-13T13:14:26.679Z,53.07
2023-03-13T13:16:32.558Z,52.58
2023-03-13T13:18:34.987Z,51.83
2023-03-13T13:20:40.395Z,51.79
2023-03-13T13:22:43.033Z,52.18
2023-03-13T13:24:52.093Z,52.21
2023-03-13T13:26:53.692Z,52.31
2023-03-13T13:28:57.954Z,52.49
2023-03-13T13:30:59.548Z,52.35
2023-03-13T13:33:19.154Z,51.09
2023-03-13T13:35:27.528Z,52.00
2023-03-13T13:37:29.248Z,51.38
2023-03-13T13:39:50.213Z,50.51
2023-03-13T13:41:51.779Z,50.64
2023-03-13T13:44:29.688Z,48.95
2023-03-13T13:46:36.110Z,49.53
2023-03-13T13:48:39.962Z,49.81
2023-03-13T13:51:19.821Z,49.94
2023-03-13T13:53:31.407Z,49.72
2023-03-13T13:55:44.767Z,50.03
2023-03-13T13:57:46.929Z,49.66
2023-03-13T14:00:05.581Z,48.34
2023-03-13T14:02:21.533Z,48.31
2023-03-13T14:04:54.482Z,47.36
2023-03-13T14:07:01.029Z,48.44
2023-03-13T14:09:15.939Z,48.59
2023-03-13T14:11:32.541Z,48.80
2023-03-13T14:13:37.185Z,48.30
2023-03-13T14:15:42.868Z,48.04
2023-03-13T14:17:55.495Z,47.51
2023-03-13T14:19:57.016Z,45.91
2023-03-13T14:22:05.028Z,45.43
2023-03-13T14:24:14.002Z,45.50
2023-03-13T14:26:27.533Z,46.01
2023-03-13T14:28:31.311Z,46.23
2023-03-13T14:30:33.041Z,46.20
2023-03-13T14:32:35.734Z,46.28
2023-03-13T14:34:37.362Z,46.32
2023-03-13T14:37:07.370Z,45.96
2023-03-13T14:39:45.369Z,46.03
2023-03-13T14:41:49.350Z,46.98
2023-03-13T14:43:50.885Z,47.41
2023-03-13T14:45:52.549Z,47.47
2023-03-13T14:47:54.971Z,47.41
2023-03-13T14:50:04.329Z,47.60
2023-03-13T14:52:14.799Z,47.63
2023-03-13T14:54:28.929Z,47.86
2023-03-13T14:56:45.088Z,47.27
2023-03-13T14:58:48.543Z,47.48
2023-03-13T15:00:54.621Z,47.50
2023-03-13T15:03:16.411Z,47.22
2023-03-13T15:05:33.931Z,47.53
2023-03-13T15:07:40.641Z,47.67
2023-03-13T15:09:43.418Z,47.18
2023-03-13T15:11:58.716Z,46.47
2023-03-13T15:14:00.948Z,46.97
2023-03-13T15:16:11.035Z,47.24
2023-03-13T15:18:30.237Z,47.68
2023-03-13T15:20:34.089Z,47.80
2023-03-13T15:22:41.179Z,47.59
2023-03-13T15:24:46.787Z,47.69
2023-03-13T15:26:54.613Z,47.72
2023-03-13T15:28:56.300Z,47.67
2023-03-13T15:30:59.862Z,47.61
2023-03-13T15:33:01.362Z,47.89
2023-03-13T15:35:15.790Z,47.84
2023-03-13T15:37:17.778Z,47.56
2023-03-13T15:39:20.457Z,47.59
2023-03-13T15:41:22.668Z,47.19
2023-03-13T15:43:24.213Z,47.40
2023-03-13T15:45:28.277Z,47.46
2023-03-13T15:47:29.726Z,47.53
2023-03-13T15:49:32.017Z,47.43
2023-03-13T15:51:33.524Z,47.43
2023-03-13T15:53:37.895Z,47.82
2023-03-13T15:55:39.705Z,47.58
2023-03-13T15:57:46.984Z,47.82
2023-03-13T15:59:49.420Z,47.69
2023-03-13T16:01:50.900Z,47.72
2023-03-13T16:03:52.623Z,47.93
2023-03-13T16:05:55.484Z,48.00
2023-03-13T16:08:00.286Z,47.92
2023-03-13T16:10:02.003Z,47.57
2023-03-13T16:12:03.571Z,47.84
2023-03-13T16:14:05.203Z,47.95
2023-03-13T16:16:20.719Z,47.84
2023-03-13T16:18:24.773Z,47.91
2023-03-13T16:20:29.804Z,47.68
2023-03-13T16:22:31.740Z,47.93
2023-03-13T16:24:33.217Z,47.65
2023-03-13T16:26:34.842Z,47.83
2023-03-13T16:28:36.558Z,47.92
2023-03-13T16:30:41.418Z,47.58
2023-03-13T16:32:43.113Z,47.91
2023-03-13T16:34:44.842Z,48.04
2023-03-13T16:36:48.785Z,47.86
2023-03-13T16:38:51.042Z,47.97
2023-03-13T16:40:55.225Z,47.88
2023-03-13T16:42:57.116Z,48.05
2023-03-13T16:44:58.721Z,48.04
2023-03-13T16:47:05.900Z,47.85
2023-03-13T16:49:22.678Z,48.11
2023-03-13T16:51:26.496Z,47.95
2023-03-13T16:53:28.268Z,48.15
2023-03-13T16:55:36.158Z,48.05
2023-03-13T16:57:40.675Z,48.00
2023-03-13T16:59:42.273Z,48.21
2023-03-13T17:01:45.823Z,48.01
2023-03-13T17:03:47.465Z,47.83
2023-03-13T17:05:51.141Z,47.65
2023-03-13T17:07:53.101Z,47.75
2023-03-13T17:09:57.390Z,47.96
2023-03-13T17:11:58.862Z,48.02
2023-03-13T17:14:00.486Z,47.66
2023-03-13T17:16:02.068Z,47.79
2023-03-13T17:18:03.676Z,47.96
2023-03-13T17:20:06.690Z,48.20
2023-03-13T17:22:15.222Z,48.16
2023-03-13T17:24:16.742Z,48.11
2023-03-13T17:26:21.668Z,48.10
2023-03-13T17:28:23.289Z,47.93
2023-03-13T17:30:30.792Z,48.09
2023-03-13T17:32:32.437Z,47.71
2023-03-13T17:34:34.038Z,48.05
2023-03-13T17:36:36.441Z,47.65
2023-03-13T17:38:37.989Z,47.50
2023-03-13T17:40:41.411Z,48.02
2023-03-13T17:42:46.419Z,47.84
2023-03-13T17:44:47.850Z,47.95
2023-03-13T17:46:51.016Z,47.81
2023-03-13T17:48:54.298Z,47.85
2023-03-13T17:50:55.772Z,48.07
2023-03-13T17:52:57.334Z,47.70
2023-03-13T17:54:58.876Z,47.88
2023-03-13T17:57:00.545Z,47.53
2023-03-13T17:59:02.773Z,47.91
2023-03-13T18:01:04.463Z,47.75
2023-03-13T18:03:08.925Z,47.99
2023-03-13T18:05:10.420Z,48.07
2023-03-13T18:07:26.606Z,47.84
2023-03-13T18:09:28.145Z,47.59
2023-03-13T18:11:29.779Z,48.10
2023-03-13T18:13:31.413Z,47.71
2023-03-13T18:15:32.996Z,48.01
2023-03-13T18:17:34.516Z,48.04
2023-03-13T18:19:36.009Z,48.26
2023-03-13T18:21:37.523Z,47.82
2023-03-13T18:23:39.027Z,47.93
2023-03-13T18:25:43.132Z,47.83
2023-03-13T18:27:44.619Z,48.18
2023-03-13T18:29:48.892Z,48.07
2023-03-13T18:31:50.558Z,47.95
2023-03-13T18:34:00.826Z,48.12
2023-03-13T18:36:02.590Z,48.02
2023-03-13T18:38:04.463Z,47.82
2023-03-13T18:40:22.554Z,47.99
2023-03-13T18:42:24.849Z,47.93
2023-03-13T18:44:26.420Z,47.81
2023-03-13T18:46:31.452Z,48.16
2023-03-13T18:48:34.172Z,48.02
2023-03-13T18:50:40.460Z,47.88
2023-03-13T18:52:41.944Z,47.98
2023-03-13T18:54:44.418Z,48.31
2023-03-13T18:56:47.661Z,48.25
2023-03-13T18:58:50.927Z,48.11
2023-03-13T19:00:52.651Z,48.08
2023-03-13T19:02:54.510Z,48.28
2023-03-13T19:04:56.070Z,48.10
2023-03-13T19:06:57.673Z,48.47
2023-03-13T19:09:43.203Z,48.22
2023-03-13T19:11:46.017Z,48.38
2023-03-13T19:13:47.778Z,48.59
2023-03-13T19:15:49.426Z,48.45
2023-03-13T19:17:56.252Z,48.36
2023-03-13T19:19:57.827Z,48.52
2023-03-13T19:21:59.306Z,48.73
2023-03-13T19:24:00.721Z,48.49
2023-03-13T19:26:02.321Z,48.65
2023-03-13T19:28:06.285Z,48.92
2023-03-13T19:30:22.211Z,48.89
2023-03-13T19:32:23.960Z,48.66
2023-03-13T19:34:25.460Z,49.06
2023-03-13T19:36:29.680Z,48.92
2023-03-13T19:38:31.306Z,48.95
2023-03-13T19:40:33.085Z,48.93
2023-03-13T19:42:35.274Z,48.79
2023-03-13T19:44:37.200Z,49.00
2023-03-13T19:46:43.313Z,48.94
2023-03-13T19:48:45.387Z,49.41
2023-03-13T19:50:46.990Z,49.27
2023-03-13T19:52:52.068Z,49.14
2023-03-13T19:54:55.736Z,49.33
2023-03-13T19:56:57.609Z,49.28
2023-03-13T19:59:07.488Z,49.26
2023-03-13T20:01:17.289Z,49.37
2023-03-13T20:03:19.391Z,49.42
2023-03-13T20:05:21.723Z,49.35
2023-03-13T20:07:23.400Z,49.80
2023-03-13T20:09:28.438Z,49.75
2023-03-13T20:11:30.294Z,49.68
2023-03-13T20:13:31.865Z,49.78
2023-03-13T20:15:33.341Z,49.94
2023-03-13T20:17:34.909Z,49.91
2023-03-13T20:19:42.980Z,49.76
2023-03-13T20:21:46.687Z,49.95
2023-03-13T20:23:49.875Z,50.10
2023-03-13T20:25:51.453Z,50.12
2023-03-13T20:27:53.418Z,50.11
2023-03-13T20:29:58.447Z,50.23
2023-03-13T20:32:13.618Z,50.30
2023-03-13T20:34:15.690Z,50.59
2023-03-13T20:36:19.912Z,50.46
2023-03-13T20:38:21.542Z,50.49
2023-03-13T20:40:23.143Z,50.79
2023-03-13T20:42:24.709Z,50.81
2023-03-13T20:44:26.363Z,50.75
2023-03-13T20:46:28.388Z,50.71
2023-03-13T20:48:29.903Z,50.67
2023-03-13T20:50:32.308Z,50.77
2023-03-13T20:52:36.919Z,50.82
2023-03-13T20:54:38.902Z,50.88
2023-03-13T20:56:41.414Z,50.95
2023-03-13T20:58:43.026Z,50.91
2023-03-13T21:00:44.647Z,51.26
2023-03-13T21:02:52.662Z,51.04
2023-03-13T21:04:54.322Z,51.05
2023-03-13T21:06:58.041Z,51.08
2023-03-13T21:08:59.588Z,51.09
2023-03-13T21:11:03.152Z,51.12
2023-03-13T21:13:05.777Z,51.27
2023-03-13T21:15:11.095Z,51.26
2023-03-13T21:17:13.496Z,51.34
2023-03-13T21:19:15.062Z,51.34
2023-03-13T21:21:19.216Z,51.50
2023-03-13T21:23:20.735Z,51.47
2023-03-13T21:25:22.874Z,51.50
2023-03-13T21:27:24.322Z,51.56
2023-03-13T21:29:26.261Z,51.64
2023-03-13T21:31:27.767Z,51.92
2023-03-13T21:33:29.578Z,51.81
2023-03-13T21:35:31.097Z,51.71
2023-03-13T21:37:33.490Z,51.79
2023-03-13T21:39:35.178Z,52.09
2023-03-13T21:41:36.860Z,52.00
2023-03-13T21:43:41.983Z,52.11
2023-03-13T21:45:43.469Z,51.92
2023-03-13T21:47:45.177Z,52.15
2023-03-13T21:49:46.695Z,52.15
2023-03-13T21:51:48.264Z,52.06
2023-03-13T21:53:49.849Z,52.14
2023-03-13T21:55:51.985Z,52.19
2023-03-13T21:57:53.563Z,52.05
2023-03-13T21:59:54.984Z,52.17
2023-03-13T22:01:56.656Z,52.53
2023-03-13T22:03:58.177Z,52.58
2023-03-13T22:05:59.798Z,52.57
2023-03-13T22:08:04.264Z,52.41
2023-03-13T22:10:06.103Z,52.46
2023-03-13T22:12:07.642Z,52.38
2023-03-13T22:14:09.172Z,52.39
2023-03-13T22:16:11.588Z,52.43
2023-03-13T22:18:14.710Z,52.50
2023-03-13T22:20:16.154Z,52.38
2023-03-13T22:22:19.767Z,52.25
2023-03-13T22:24:21.247Z,52.31
2023-03-13T22:26:22.909Z,52.37
2023-03-13T22:28:24.968Z,52.12
2023-03-13T22:30:31.782Z,52.27
2023-03-13T22:32:33.295Z,52.55
2023-03-13T22:34:38.273Z,52.72
2023-03-13T22:36:40.216Z,52.68
2023-03-13T22:38:41.849Z,52.59
2023-03-13T22:40:43.526Z,52.67
2023-03-13T22:42:44.935Z,52.71
2023-03-13T22:44:46.544Z,52.82
2023-03-13T22:46:48.009Z,52.96
2023-03-13T22:48:49.469Z,52.76
2023-03-13T22:51:01.240Z,53.06
2023-03-13T22:53:03.001Z,53.08
2023-03-13T22:55:05.022Z,52.86
2023-03-13T22:57:13.858Z,52.96
2023-03-13T22:59:16.230Z,52.75
2023-03-13T23:01:21.738Z,53.01
2023-03-13T23:03:23.286Z,53.14
2023-03-13T23:05:26.415Z,52.98
2023-03-13T23:07:29.667Z,53.07
2023-03-13T23:09:31.166Z,52.90
2023-03-13T23:11:33.195Z,52.88
2023-03-13T23:13:36.950Z,52.92
2023-03-13T23:15:55.277Z,52.77
2023-03-13T23:18:25.924Z,52.88
2023-03-13T23:20:27.413Z,53.02
2023-03-13T23:22:32.867Z,52.99
2023-03-13T23:24:35.969Z,53.32
2023-03-13T23:26:37.608Z,53.16
2023-03-13T23:28:39.768Z,52.95
2023-03-13T23:30:44.997Z,53.08
2023-03-13T23:32:48.346Z,53.12
2023-03-13T23:34:49.827Z,53.19
2023-03-13T23:36:51.337Z,53.48
2023-03-13T23:38:56.652Z,53.61
2023-03-13T23:40:58.113Z,53.37
2023-03-13T23:42:59.613Z,53.57
2023-03-13T23:45:05.696Z,53.38
2023-03-13T23:47:07.230Z,53.64
2023-03-13T23:49:08.653Z,53.55
2023-03-13T23:51:10.566Z,53.47
2023-03-13T23:53:12.076Z,53.39
2023-03-13T23:55:13.632Z,53.66
2023-03-13T23:57:15.145Z,53.45
2023-03-13T23:59:16.674Z,53.42
